Time;durP1;ratioP1;P1;durP2;ratioP2;P2;SDS_P1;SDS_P2;PMS_P1;PMS_P2;Temp;Humidity;BMP_temperature;BMP_pressure;BME280_temperature;BME280_humidity;BME280_pressure;Samples;Min_cycle;Max_cycle;Signal;HPM_P1;HPM_P2
2022/05/07 00:00:39;;;;;;;28.45;16.67;;;;;;;;;;5032521;28;20091;-72
2022/05/07 00:03:06;;;;;;;25.77;14.82;;;;;;;;;;5032426;28;20057;-73
2022/05/07 00:05:32;;;;;;;28.70;16.30;;;;;;;;;;5032423;28;20108;-72
2022/05/07 00:07:58;;;;;;;28.58;15.85;;;;;;;;;;5032621;28;20037;-72
2022/05/07 00:10:25;;;;;;;24.88;15.55;;;;;;;;;;5032436;28;20112;-73
2022/05/07 00:12:51;;;;;;;26.50;15.40;;;;;;;;;;5032309;28;20105;-73
2022/05/07 00:15:17;;;;;;;22.17;15.80;;;;;;;;;;5032401;28;20037;-73
2022/05/07 00:18:01;;;;;;;30.63;17.13;;;;;;;;;;5032495;28;20087;-73
2022/05/07 00:20:27;;;;;;;29.88;17.17;;;;;;;;;;5032335;28;20187;-73
2022/05/07 00:22:54;;;;;;;36.85;18.38;;;;;;;;;;5032435;28;20355;-73
2022/05/07 00:25:20;;;;;;;30.15;17.13;;;;;;;;;;5030440;28;20033;-73
2022/05/07 00:27:46;;;;;;;26.15;18.48;;;;;;;;;;5032329;28;20093;-72
2022/05/07 00:30:12;;;;;;;34.03;20.20;;;;;;;;;;5028328;28;20029;-72
2022/05/07 00:32:38;;;;;;;31.48;17.13;;;;;;;;;;5012513;28;20036;-72
2022/05/07 00:35:04;;;;;;;37.50;18.50;;;;;;;;;;5018684;28;20034;-72
2022/05/07 00:37:30;;;;;;;23.73;15.57;;;;;;;;;;5032124;28;20549;-73
2022/05/07 00:39:56;;;;;;;35.13;17.92;;;;;;;;;;5030574;28;20376;-73
2022/05/07 00:42:22;;;;;;;20.13;14.75;;;;;;;;;;5032157;28;20024;-73
2022/05/07 00:44:48;;;;;;;32.50;17.30;;;;;;;;;;5031917;28;20099;-73
2022/05/07 00:47:14;;;;;;;27.00;16.95;;;;;;;;;;5031934;28;20044;-73
2022/05/07 00:49:47;;;;;;;27.55;17.27;;;;;;;;;;5031818;28;20479;-73
2022/05/07 00:52:14;;;;;;;33.58;17.95;;;;;;;;;;5031754;28;20025;-73
2022/05/07 00:54:41;;;;;;;28.95;18.40;;;;;;;;;;5032326;28;20022;-73
2022/05/07 00:57:09;;;;;;;34.40;16.67;;;;;;;;;;5031955;28;20053;-73
2022/05/07 00:59:35;;;;;;;25.30;16.90;;;;;;;;;;5031908;28;20022;-73
2022/05/07 01:02:01;;;;;;;26.10;17.00;;;;;;;;;;5031506;28;20137;-73
2022/05/07 01:04:27;;;;;;;27.70;16.30;;;;;;;;;;5031736;28;20490;-72
2022/05/07 01:06:53;;;;;;;27.23;19.20;;;;;;;;;;5031722;28;20634;-73
2022/05/07 01:09:20;;;;;;;28.10;16.40;;;;;;;;;;5031698;28;20317;-73
2022/05/07 01:11:46;;;;;;;25.65;16.83;;;;;;;;;;5031601;28;20037;-72
2022/05/07 01:14:12;;;;;;;32.65;18.13;;;;;;;;;;5031613;28;20091;-73
2022/05/07 01:16:38;;;;;;;24.80;16.35;;;;;;;;;;5031604;28;20025;-73
2022/05/07 01:19:04;;;;;;;30.10;17.70;;;;;;;;;;5031546;28;20051;-73
2022/05/07 01:21:30;;;;;;;23.88;17.75;;;;;;;;;;5031548;28;20026;-73
2022/05/07 01:23:56;;;;;;;26.67;18.48;;;;;;;;;;5031485;28;20353;-73
2022/05/07 01:26:23;;;;;;;30.35;18.35;;;;;;;;;;5031549;28;20026;-73
2022/05/07 01:28:50;;;;;;;26.33;17.13;;;;;;;;;;5031556;28;20025;-72
2022/05/07 01:31:16;;;;;;;27.90;19.80;;;;;;;;;;5031405;28;20057;-73
2022/05/07 01:33:42;;;;;;;30.48;19.63;;;;;;;;;;5031194;28;20033;-73
2022/05/07 01:36:11;;;;;;;26.80;17.77;;;;;;;;;;5031142;28;20025;-73
2022/05/07 01:38:37;;;;;;;25.30;18.52;;;;;;;;;;5034970;28;20013;-73
2022/05/07 01:41:04;;;;;;;27.27;17.73;;;;;;;;;;5035440;28;20033;-73
2022/05/07 01:43:33;;;;;;;27.42;17.83;;;;;;;;;;5035349;28;20033;-73
2022/05/07 01:45:59;;;;;;;25.73;17.02;;;;;;;;;;5035192;28;20029;-73
2022/05/07 01:48:25;;;;;;;28.58;17.90;;;;;;;;;;5033883;28;20468;-73
2022/05/07 01:50:52;;;;;;;28.02;18.48;;;;;;;;;;5035033;28;20460;-73
2022/05/07 01:53:18;;;;;;;29.50;19.55;;;;;;;;;;5035205;28;20383;-73
2022/05/07 01:55:44;;;;;;;36.33;20.77;;;;;;;;;;5035076;28;20044;-73
2022/05/07 01:58:11;;;;;;;27.80;19.23;;;;;;;;;;5035136;28;20099;-73
2022/05/07 02:00:37;;;;;;;26.13;18.45;;;;;;;;;;5034808;28;20529;-73
2022/05/07 02:03:03;;;;;;;30.10;19.70;;;;;;;;;;5034950;28;20432;-73
2022/05/07 02:05:30;;;;;;;29.60;19.95;;;;;;;;;;5034694;28;20048;-73
2022/05/07 02:07:57;;;;;;;29.35;19.70;;;;;;;;;;5034892;28;20034;-73
2022/05/07 02:10:23;;;;;;;35.08;18.88;;;;;;;;;;5034794;28;20075;-73
2022/05/07 02:12:49;;;;;;;37.95;18.95;;;;;;;;;;5035008;28;20213;-73
2022/05/07 02:15:16;;;;;;;32.42;18.92;;;;;;;;;;5034543;28;20033;-73
2022/05/07 02:17:42;;;;;;;42.72;21.25;;;;;;;;;;5033310;28;20018;-73
2022/05/07 02:20:08;;;;;;;41.17;21.58;;;;;;;;;;5034576;28;20135;-73
2022/05/07 02:22:34;;;;;;;30.75;19.25;;;;;;;;;;5033141;28;20048;-73
2022/05/07 02:25:01;;;;;;;29.05;19.42;;;;;;;;;;5034465;28;20100;-73
2022/05/07 02:27:27;;;;;;;29.15;19.05;;;;;;;;;;5034344;28;20467;-73
2022/05/07 02:29:53;;;;;;;31.42;20.02;;;;;;;;;;5033282;28;20151;-73
2022/05/07 02:32:19;;;;;;;34.65;21.48;;;;;;;;;;5014699;28;20044;-73
2022/05/07 02:34:46;;;;;;;32.58;20.95;;;;;;;;;;5018280;28;20127;-73
2022/05/07 02:37:12;;;;;;;32.22;21.20;;;;;;;;;;5034225;28;20030;-73
2022/05/07 02:39:38;;;;;;;31.55;21.77;;;;;;;;;;5034297;28;20029;-73
2022/05/07 02:44:49;;;;;;;35.70;22.55;;;;;;;;;;5034254;28;20052;-73
2022/05/07 02:47:15;;;;;;;30.20;21.45;;;;;;;;;;5033957;28;20108;-73
2022/05/07 02:49:41;;;;;;;32.22;21.60;;;;;;;;;;5033905;28;20111;-73
2022/05/07 02:52:07;;;;;;;33.70;19.92;;;;;;;;;;5033991;28;20033;-73
2022/05/07 02:54:33;;;;;;;28.90;19.92;;;;;;;;;;5034385;28;20037;-73
2022/05/07 02:57:00;;;;;;;28.67;19.75;;;;;;;;;;5033985;28;20068;-73
2022/05/07 02:59:26;;;;;;;32.08;20.85;;;;;;;;;;5033894;28;20045;-73
2022/05/07 03:01:52;;;;;;;30.20;19.75;;;;;;;;;;5033451;28;20092;-73
2022/05/07 03:04:19;;;;;;;33.15;20.92;;;;;;;;;;5033857;28;20095;-73
2022/05/07 03:06:45;;;;;;;29.92;21.08;;;;;;;;;;5033635;28;20097;-73
2022/05/07 03:09:11;;;;;;;29.38;19.85;;;;;;;;;;5033712;28;20049;-73
2022/05/07 03:11:37;;;;;;;32.10;20.90;;;;;;;;;;5033656;28;20029;-73
2022/05/07 03:14:04;;;;;;;31.90;22.48;;;;;;;;;;5033639;28;20091;-73
2022/05/07 03:16:38;;;;;;;29.60;20.90;;;;;;;;;;5033450;28;20026;-73
2022/05/07 03:19:04;;;;;;;32.45;23.40;;;;;;;;;;5033651;28;20521;-73
2022/05/07 03:21:30;;;;;;;34.17;22.60;;;;;;;;;;5033501;28;20030;-73
2022/05/07 03:23:56;;;;;;;32.97;22.85;;;;;;;;;;5033528;28;20079;-73
2022/05/07 03:26:22;;;;;;;31.88;23.38;;;;;;;;;;5033569;28;20029;-73
2022/05/07 03:28:49;;;;;;;39.30;23.55;;;;;;;;;;5033321;28;20048;-73
2022/05/07 03:31:15;;;;;;;37.28;25.73;;;;;;;;;;5021013;28;20033;-73
2022/05/07 03:33:41;;;;;;;36.88;25.40;;;;;;;;;;5028653;28;20087;-73
2022/05/07 03:36:09;;;;;;;42.03;25.23;;;;;;;;;;5028359;28;20041;-73
2022/05/07 03:38:35;;;;;;;44.10;28.02;;;;;;;;;;5033152;28;20068;-73
2022/05/07 03:41:03;;;;;;;40.95;28.27;;;;;;;;;;5033134;28;20037;-73
2022/05/07 03:43:29;;;;;;;37.63;25.80;;;;;;;;;;5033032;28;20049;-73
2022/05/07 03:45:55;;;;;;;45.28;27.85;;;;;;;;;;5032970;28;20033;-73
2022/05/07 03:48:21;;;;;;;45.92;29.33;;;;;;;;;;5032942;28;20030;-73
2022/05/07 03:50:47;;;;;;;42.63;28.55;;;;;;;;;;5031481;28;20364;-73
2022/05/07 03:53:31;;;;;;;36.13;25.75;;;;;;;;;;5032936;28;20447;-73
2022/05/07 03:56:01;;;;;;;38.88;26.58;;;;;;;;;;5032927;28;20025;-73
2022/05/07 03:58:27;;;;;;;37.65;26.15;;;;;;;;;;5032815;28;20046;-73
2022/05/07 04:00:54;;;;;;;42.35;29.60;;;;;;;;;;5031934;28;20490;-73
2022/05/07 04:03:20;;;;;;;39.78;27.27;;;;;;;;;;5032646;28;20033;-73
2022/05/07 04:05:46;;;;;;;39.92;28.27;;;;;;;;;;5032583;28;20396;-73
2022/05/07 04:08:12;;;;;;;45.50;26.83;;;;;;;;;;5032541;28;20108;-73
2022/05/07 04:10:39;;;;;;;43.95;28.55;;;;;;;;;;5032490;28;20033;-73
2022/05/07 04:13:05;;;;;;;44.60;29.42;;;;;;;;;;5032444;28;20438;-73
2022/05/07 04:15:32;;;;;;;54.17;31.60;;;;;;;;;;5032325;28;20041;-73
2022/05/07 04:17:58;;;;;;;49.72;32.20;;;;;;;;;;5032210;28;20483;-73
2022/05/07 04:20:24;;;;;;;39.20;28.50;;;;;;;;;;5032221;28;20029;-73
2022/05/07 04:22:50;;;;;;;48.33;32.08;;;;;;;;;;5032416;28;20503;-73
2022/05/07 04:25:17;;;;;;;50.03;30.80;;;;;;;;;;5030879;28;20029;-73
2022/05/07 04:27:43;;;;;;;50.47;29.50;;;;;;;;;;5012470;28;20033;-73
2022/05/07 04:30:09;;;;;;;47.85;31.08;;;;;;;;;;5015286;28;20024;-73
2022/05/07 04:32:35;;;;;;;48.55;32.03;;;;;;;;;;5032330;28;20356;-73
2022/05/07 04:35:02;;;;;;;46.30;29.20;;;;;;;;;;5032019;28;20037;-73
2022/05/07 04:37:28;;;;;;;44.03;28.42;;;;;;;;;;5032057;28;20030;-73
2022/05/07 04:39:54;;;;;;;46.95;29.25;;;;;;;;;;5032111;28;20060;-73
2022/05/07 04:42:20;;;;;;;38.45;28.15;;;;;;;;;;5032046;28;20030;-73
2022/05/07 04:44:46;;;;;;;46.13;29.73;;;;;;;;;;5032047;28;20033;-73
2022/05/07 04:47:12;;;;;;;44.28;29.48;;;;;;;;;;5031783;28;20026;-73
2022/05/07 04:49:38;;;;;;;39.42;28.38;;;;;;;;;;5031793;28;20096;-73
2022/05/07 04:52:08;;;;;;;43.65;28.25;;;;;;;;;;5031823;28;20097;-73
2022/05/07 04:54:34;;;;;;;35.67;24.15;;;;;;;;;;5032275;28;20098;-73
2022/05/07 04:57:00;;;;;;;35.42;25.02;;;;;;;;;;5031807;28;20421;-73
2022/05/07 04:59:26;;;;;;;42.55;30.80;;;;;;;;;;5030451;28;20026;-73
2022/05/07 05:01:52;;;;;;;40.78;26.98;;;;;;;;;;5031406;28;20084;-73
2022/05/07 05:04:18;;;;;;;39.63;26.40;;;;;;;;;;5031712;28;20034;-74
2022/05/07 05:06:45;;;;;;;38.95;26.13;;;;;;;;;;5031635;28;20049;-73
2022/05/07 05:09:12;;;;;;;42.25;29.15;;;;;;;;;;5031612;28;20029;-73
2022/05/07 05:11:39;;;;;;;39.50;26.23;;;;;;;;;;5033829;28;20025;-73
2022/05/07 05:16:50;;;;;;;41.60;28.83;;;;;;;;;;5035618;28;20068;-73
2022/05/07 05:19:16;;;;;;;40.65;27.20;;;;;;;;;;5035744;28;20029;-73
2022/05/07 05:21:42;;;;;;;40.92;28.02;;;;;;;;;;5035699;28;20041;-73
2022/05/07 05:24:08;;;;;;;39.25;26.73;;;;;;;;;;5035660;28;20029;-73
2022/05/07 05:26:35;;;;;;;41.60;24.50;;;;;;;;;;5035494;28;20090;-73
2022/05/07 05:29:01;;;;;;;36.13;25.85;;;;;;;;;;5035472;28;20026;-73
2022/05/07 05:31:28;;;;;;;37.72;24.65;;;;;;;;;;5021547;28;20033;-73
2022/05/07 05:33:54;;;;;;;39.22;27.25;;;;;;;;;;5015729;28;20437;-73
2022/05/07 05:36:20;;;;;;;48.05;27.10;;;;;;;;;;5032444;28;20052;-73
2022/05/07 05:38:46;;;;;;;41.05;26.13;;;;;;;;;;5033864;28;20041;-73
2022/05/07 05:41:13;;;;;;;44.50;25.65;;;;;;;;;;5034107;28;20029;-73
2022/05/07 05:43:40;;;;;;;37.15;24.58;;;;;;;;;;5035277;28;20100;-73
2022/05/07 05:46:06;;;;;;;36.30;23.90;;;;;;;;;;5035148;28;20021;-75
2022/05/07 05:48:32;;;;;;;42.47;23.85;;;;;;;;;;5035097;28;20536;-73
2022/05/07 05:50:59;;;;;;;35.63;23.77;;;;;;;;;;5035047;28;20025;-73
2022/05/07 05:53:25;;;;;;;36.58;24.23;;;;;;;;;;5035126;28;20101;-73
2022/05/07 05:55:52;;;;;;;29.63;21.02;;;;;;;;;;5035171;28;20183;-74
2022/05/07 05:58:18;;;;;;;30.58;20.70;;;;;;;;;;5034976;28;20033;-74
2022/05/07 06:00:44;;;;;;;31.15;19.63;;;;;;;;;;5033179;28;20485;-75
2022/05/07 06:03:10;;;;;;;32.28;18.63;;;;;;;;;;5034909;28;20432;-74
2022/05/07 06:05:37;;;;;;;32.13;17.30;;;;;;;;;;5034736;28;20100;-75
2022/05/07 06:08:03;;;;;;;24.63;17.00;;;;;;;;;;5034976;28;20029;-74
2022/05/07 06:10:29;;;;;;;24.38;16.42;;;;;;;;;;5034711;28;20026;-75
2022/05/07 06:12:55;;;;;;;32.38;15.88;;;;;;;;;;5034761;28;20032;-74
2022/05/07 06:15:22;;;;;;;34.90;17.08;;;;;;;;;;5034588;28;20025;-75
2022/05/07 06:17:48;;;;;;;26.88;15.20;;;;;;;;;;5034707;28;20390;-75
2022/05/07 06:20:14;;;;;;;33.08;15.30;;;;;;;;;;5034675;28;20474;-74
2022/05/07 06:22:40;;;;;;;26.52;13.07;;;;;;;;;;5034492;28;20531;-74
2022/05/07 06:27:51;;;;;;;20.48;12.07;;;;;;;;;;5015555;28;20125;-74
2022/05/07 06:30:17;;;;;;;27.67;11.85;;;;;;;;;;5014918;28;20030;-74
2022/05/07 06:32:43;;;;;;;24.92;12.25;;;;;;;;;;5014970;28;20385;-74
2022/05/07 06:35:10;;;;;;;24.17;11.93;;;;;;;;;;5021581;28;20434;-74
2022/05/07 06:37:37;;;;;;;25.75;12.23;;;;;;;;;;5034446;28;20017;-74
2022/05/07 06:40:05;;;;;;;21.55;12.27;;;;;;;;;;5034273;28;20018;-74
2022/05/07 06:42:34;;;;;;;26.38;11.73;;;;;;;;;;5034236;28;20167;-74
2022/05/07 06:45:00;;;;;;;23.58;11.95;;;;;;;;;;5034180;28;20037;-74
2022/05/07 06:47:26;;;;;;;26.05;11.88;;;;;;;;;;5034208;28;20021;-73
2022/05/07 06:49:52;;;;;;;26.05;12.68;;;;;;;;;;5024303;28;20080;-73
2022/05/07 06:52:18;;;;;;;26.65;12.60;;;;;;;;;;5023686;28;20025;-73
2022/05/07 06:54:44;;;;;;;24.98;12.90;;;;;;;;;;5023471;28;20100;-73
2022/05/07 06:57:11;;;;;;;24.23;12.18;;;;;;;;;;5024817;28;20117;-73
2022/05/07 06:59:37;;;;;;;23.52;12.45;;;;;;;;;;5023432;28;20484;-73
2022/05/07 07:02:04;;;;;;;30.35;13.65;;;;;;;;;;5025354;28;20044;-73
2022/05/07 07:04:30;;;;;;;27.48;13.05;;;;;;;;;;5024596;28;20041;-73
2022/05/07 07:06:57;;;;;;;30.58;12.32;;;;;;;;;;5023812;28;20471;-73
2022/05/07 07:09:23;;;;;;;31.98;14.05;;;;;;;;;;5024005;28;20022;-73
2022/05/07 07:11:49;;;;;;;28.30;13.25;;;;;;;;;;5024590;28;20505;-73
2022/05/07 07:14:15;;;;;;;31.48;14.88;;;;;;;;;;5022719;28;20026;-74
2022/05/07 07:16:41;;;;;;;28.98;13.68;;;;;;;;;;5023152;28;20028;-73
2022/05/07 07:19:07;;;;;;;30.15;13.80;;;;;;;;;;5024331;28;20026;-73
2022/05/07 07:21:33;;;;;;;31.85;13.00;;;;;;;;;;5022263;28;20076;-75
2022/05/07 07:23:59;;;;;;;24.77;13.48;;;;;;;;;;5023255;28;20029;-74
2022/05/07 07:26:25;;;;;;;32.03;13.52;;;;;;;;;;5022801;28;20022;-75
2022/05/07 07:28:53;;;;;;;28.20;13.45;;;;;;;;;;5022759;28;20072;-74
2022/05/07 07:31:33;;;;;;;25.05;12.63;;;;;;;;;;5023816;28;20478;-73
2022/05/07 07:33:59;;;;;;;34.40;13.73;;;;;;;;;;5013059;28;20041;-74
2022/05/07 07:36:25;;;;;;;32.33;13.18;;;;;;;;;;5021812;28;20041;-74
2022/05/07 07:38:51;;;;;;;29.02;13.05;;;;;;;;;;5023429;28;20020;-74
2022/05/07 07:41:17;;;;;;;24.90;12.13;;;;;;;;;;5024258;28;20048;-74
2022/05/07 07:43:43;;;;;;;28.23;14.55;;;;;;;;;;5022687;28;20385;-74
2022/05/07 07:48:54;;;;;;;33.90;13.00;;;;;;;;;;5023203;28;20045;-74
2022/05/07 07:51:20;;;;;;;28.67;13.13;;;;;;;;;;5021770;28;20368;-74
2022/05/07 07:53:47;;;;;;;26.48;13.13;;;;;;;;;;5023645;28;20345;-74
2022/05/07 07:56:13;;;;;;;27.55;13.25;;;;;;;;;;5029968;28;20036;-74
2022/05/07 07:58:39;;;;;;;35.05;13.45;;;;;;;;;;5033070;28;20498;-74
2022/05/07 08:01:05;;;;;;;33.45;13.68;;;;;;;;;;5032533;28;20468;-75
2022/05/07 08:03:31;;;;;;;28.00;13.23;;;;;;;;;;5033201;28;20037;-74
2022/05/07 08:05:57;;;;;;;30.35;13.57;;;;;;;;;;5033130;28;20037;-74
2022/05/07 08:13:53;;;;;;;25.77;13.35;;;;;;;;;;5015157;28;21541;-74
2022/05/07 08:16:19;;;;;;;24.95;12.98;;;;;;;;;;5025993;28;20025;-74
2022/05/07 08:18:46;;;;;;;24.33;13.25;;;;;;;;;;5031117;28;20030;-74
2022/05/07 08:21:12;;;;;;;27.00;13.05;;;;;;;;;;5022010;28;20034;-74
2022/05/07 08:23:39;;;;;;;27.20;13.35;;;;;;;;;;5020422;28;20128;-74
2022/05/07 08:26:06;;;;;;;25.75;12.43;;;;;;;;;;5023369;28;20109;-74
2022/05/07 08:28:32;;;;;;;25.77;13.15;;;;;;;;;;5021637;28;20026;-74
2022/05/07 08:30:58;;;;;;;27.45;12.50;;;;;;;;;;5024065;28;20096;-74
2022/05/07 08:33:25;;;;;;;22.13;11.48;;;;;;;;;;5012519;28;20084;-75
2022/05/07 08:35:51;;;;;;;21.38;12.02;;;;;;;;;;5015004;28;20129;-74
2022/05/07 08:38:18;;;;;;;20.00;10.77;;;;;;;;;;5020292;28;20053;-74
2022/05/07 08:40:44;;;;;;;24.63;11.65;;;;;;;;;;5022712;28;20061;-74
2022/05/07 08:43:10;;;;;;;25.20;11.88;;;;;;;;;;5021873;28;20575;-75
2022/05/07 08:45:36;;;;;;;22.90;11.73;;;;;;;;;;5020521;28;20026;-74
2022/05/07 08:48:02;;;;;;;23.75;12.18;;;;;;;;;;5031977;28;20084;-74
2022/05/07 08:50:29;;;;;;;26.95;12.75;;;;;;;;;;5032050;28;20738;-77
2022/05/07 08:52:55;;;;;;;26.63;13.13;;;;;;;;;;5033146;28;20037;-88
2022/05/07 08:55:21;;;;;;;30.05;12.20;;;;;;;;;;5033092;28;20056;-86
2022/05/07 08:57:49;;;;;;;26.25;12.55;;;;;;;;;;5033067;28;20179;-84
2022/05/07 09:00:16;;;;;;;27.00;12.80;;;;;;;;;;5033253;28;20037;-82
2022/05/07 09:02:42;;;;;;;26.75;13.48;;;;;;;;;;5032659;28;20477;-82
2022/05/07 09:05:12;;;;;;;21.63;11.40;;;;;;;;;;5032549;28;20025;-86
2022/05/07 09:07:40;;;;;;;23.60;11.80;;;;;;;;;;5033109;28;20096;-82
2022/05/07 09:10:11;;;;;;;19.58;11.25;;;;;;;;;;5033626;28;20361;-84
2022/05/07 09:12:37;;;;;;;22.92;11.80;;;;;;;;;;5033010;28;20017;-85
2022/05/07 09:15:04;;;;;;;22.02;12.00;;;;;;;;;;5033772;28;20022;-86
2022/05/07 09:17:30;;;;;;;20.45;11.02;;;;;;;;;;5034019;28;20037;-83
2022/05/07 09:19:56;;;;;;;23.80;11.90;;;;;;;;;;5033248;28;20026;-82
2022/05/07 09:22:23;;;;;;;18.92;11.38;;;;;;;;;;5033454;28;20057;-77
2022/05/07 09:24:56;;;;;;;22.83;11.45;;;;;;;;;;5032630;28;20017;-80
2022/05/07 09:27:24;;;;;;;19.45;10.73;;;;;;;;;;5021206;28;20026;-79
2022/05/07 09:30:03;;;;;;;23.08;12.30;;;;;;;;;;5022036;28;20491;-79
2022/05/07 09:32:36;;;;;;;22.38;10.73;;;;;;;;;;5020870;28;20049;-79
2022/05/07 09:36:11;;;;;;;18.85;11.10;;;;;;;;;;5020642;28;20033;-79
2022/05/07 09:38:06;;;;;;;18.35;11.10;;;;;;;;;;5027137;28;20109;-80
2022/05/07 09:40:38;;;;;;;24.90;10.65;;;;;;;;;;5032196;28;20033;-80
2022/05/07 09:43:04;;;;;;;15.80;9.77;;;;;;;;;;5032226;28;20030;-80
2022/05/07 09:45:30;;;;;;;16.02;9.13;;;;;;;;;;5031329;28;20106;-81
2022/05/07 09:47:59;;;;;;;20.65;10.52;;;;;;;;;;5032603;28;20045;-80
2022/05/07 09:58:44;;;;;;;16.95;10.65;;;;;;;;;;5034806;28;20514;-82
2022/05/07 10:01:17;;;;;;;16.67;9.80;;;;;;;;;;5036041;28;20029;-82
2022/05/07 10:04:06;;;;;;;16.83;9.63;;;;;;;;;;5035905;28;20078;-82
2022/05/07 10:06:35;;;;;;;34.70;9.88;;;;;;;;;;5036108;28;20075;-81
2022/05/07 10:09:13;;;;;;;17.60;9.50;;;;;;;;;;5035962;28;20025;-84
2022/05/07 10:11:39;;;;;;;15.77;9.30;;;;;;;;;;5036321;28;20049;-84
2022/05/07 10:14:06;;;;;;;19.42;10.13;;;;;;;;;;5036145;28;20053;-82
2022/05/07 10:16:32;;;;;;;18.33;10.35;;;;;;;;;;5036240;28;20017;-82
2022/05/07 10:19:11;;;;;;;19.23;10.35;;;;;;;;;;5036381;28;20368;-83
2022/05/07 10:21:37;;;;;;;19.33;10.13;;;;;;;;;;5035759;28;20029;-78
2022/05/07 10:24:05;;;;;;;15.63;9.43;;;;;;;;;;5033405;28;20037;-80
2022/05/07 10:26:43;;;;;;;17.60;9.75;;;;;;;;;;5035645;28;20021;-80
2022/05/07 10:29:25;;;;;;;16.65;9.55;;;;;;;;;;5034349;28;20056;-79
2022/05/07 10:32:01;;;;;;;18.20;9.52;;;;;;;;;;5018467;28;20564;-79
2022/05/07 10:34:27;;;;;;;15.38;9.35;;;;;;;;;;5015803;28;20097;-80
2022/05/07 10:37:04;;;;;;;18.90;8.65;;;;;;;;;;5015373;28;20033;-79
2022/05/07 10:39:31;;;;;;;13.70;7.32;;;;;;;;;;5015144;28;20484;-79
2022/05/07 10:42:01;;;;;;;15.95;7.05;;;;;;;;;;5025700;28;20049;-79
2022/05/07 10:44:34;;;;;;;18.17;6.22;;;;;;;;;;5033914;28;20078;-79
2022/05/07 10:47:10;;;;;;;10.88;5.25;;;;;;;;;;5033915;28;20099;-79
2022/05/07 10:49:50;;;;;;;8.25;4.88;;;;;;;;;;5033864;28;20057;-79
2022/05/07 10:52:27;;;;;;;9.63;4.55;;;;;;;;;;5033648;28;20030;-80
2022/05/07 10:55:03;;;;;;;9.05;4.43;;;;;;;;;;5035267;28;20044;-79
2022/05/07 10:57:37;;;;;;;8.70;4.50;;;;;;;;;;5035133;28;20029;-80
2022/05/07 11:00:04;;;;;;;7.50;4.05;;;;;;;;;;5035623;28;20095;-80
2022/05/07 11:02:31;;;;;;;13.35;4.78;;;;;;;;;;5024567;28;20044;-79
2022/05/07 11:04:57;;;;;;;10.57;4.70;;;;;;;;;;5035006;28;20017;-80
2022/05/07 11:07:26;;;;;;;8.50;4.85;;;;;;;;;;5035259;28;20021;-80
2022/05/07 11:09:53;;;;;;;10.23;5.68;;;;;;;;;;5034994;28;20091;-81
2022/05/07 11:12:22;;;;;;;10.50;5.80;;;;;;;;;;5034710;28;20025;-79
2022/05/07 11:14:48;;;;;;;11.68;6.25;;;;;;;;;;5034807;28;20174;-76
2022/05/07 11:17:17;;;;;;;14.90;6.90;;;;;;;;;;5034647;28;20028;-79
2022/05/07 11:19:43;;;;;;;15.27;8.30;;;;;;;;;;5034533;28;20018;-78
2022/05/07 11:22:10;;;;;;;19.85;9.38;;;;;;;;;;5034412;28;20033;-76
2022/05/07 11:24:37;;;;;;;23.45;8.70;;;;;;;;;;5026189;28;20030;-77
2022/05/07 11:27:05;;;;;;;17.02;8.85;;;;;;;;;;5034631;28;20030;-77
2022/05/07 11:29:32;;;;;;;18.25;9.32;;;;;;;;;;5034834;28;20100;-77
2022/05/07 11:32:02;;;;;;;14.65;8.20;;;;;;;;;;5016759;28;20026;-77
2022/05/07 11:34:32;;;;;;;15.73;8.68;;;;;;;;;;5014717;28;20093;-77
2022/05/07 11:37:19;;;;;;;17.83;9.18;;;;;;;;;;5014628;28;20108;-78
2022/05/07 11:39:58;;;;;;;18.20;10.05;;;;;;;;;;5014413;28;20018;-77
2022/05/07 11:42:27;;;;;;;17.83;9.02;;;;;;;;;;5014421;28;20050;-77
2022/05/07 11:47:38;;;;;;;18.35;7.93;;;;;;;;;;5014673;28;20111;-76
2022/05/07 11:50:05;;;;;;;17.17;9.15;;;;;;;;;;5014524;28;20485;-76
2022/05/07 11:52:31;;;;;;;19.52;10.15;;;;;;;;;;5014245;28;20080;-76
2022/05/07 11:54:57;;;;;;;14.80;8.98;;;;;;;;;;5015091;28;20068;-77
2022/05/07 11:57:30;;;;;;;17.92;8.57;;;;;;;;;;5033570;28;20026;-75
2022/05/07 11:59:56;;;;;;;20.63;10.35;;;;;;;;;;5033508;28;20021;-82
2022/05/07 12:02:23;;;;;;;16.85;9.73;;;;;;;;;;5033327;28;20084;-79
2022/05/07 12:04:58;;;;;;;19.75;9.98;;;;;;;;;;5032866;28;20083;-79
2022/05/07 12:07:24;;;;;;;17.98;10.23;;;;;;;;;;5038047;28;20028;-78
2022/05/07 12:09:50;;;;;;;20.92;9.40;;;;;;;;;;5033144;28;20025;-79
2022/05/07 12:12:16;;;;;;;19.60;9.07;;;;;;;;;;5033174;28;20309;-80
2022/05/07 12:14:42;;;;;;;15.40;8.27;;;;;;;;;;5033124;28;20040;-76
2022/05/07 12:19:53;;;;;;;18.08;9.60;;;;;;;;;;5033374;28;20120;-80
2022/05/07 12:30:40;;;;;;;19.55;9.93;;;;;;;;;;5024808;28;20030;-81
2022/05/07 12:33:07;;;;;;;20.83;9.68;;;;;;;;;;5033612;28;20017;-82
2022/05/07 12:35:33;;;;;;;21.08;11.10;;;;;;;;;;5048805;28;20079;-82
2022/05/07 12:37:59;;;;;;;15.55;9.95;;;;;;;;;;5031943;28;20053;-78
2022/05/07 12:40:25;;;;;;;21.33;10.90;;;;;;;;;;5032107;28;20409;-78
2022/05/07 12:42:51;;;;;;;17.00;10.10;;;;;;;;;;5031974;28;20151;-78
2022/05/07 12:45:17;;;;;;;16.48;10.57;;;;;;;;;;5031968;28;20104;-78
2022/05/07 12:47:43;;;;;;;17.15;10.77;;;;;;;;;;5032097;28;20030;-78
2022/05/07 12:50:09;;;;;;;20.70;11.98;;;;;;;;;;5031720;28;20026;-77
2022/05/07 12:52:35;;;;;;;20.00;12.48;;;;;;;;;;5031913;28;20026;-78
2022/05/07 12:55:01;;;;;;;19.20;11.30;;;;;;;;;;5031721;28;20394;-78
2022/05/07 12:57:28;;;;;;;17.70;10.90;;;;;;;;;;5031611;28;20017;-78
2022/05/07 12:59:55;;;;;;;24.30;12.68;;;;;;;;;;5031445;28;20018;-78
2022/05/07 13:02:21;;;;;;;21.48;11.18;;;;;;;;;;5031437;28;20487;-78
2022/05/07 13:04:48;;;;;;;19.80;11.35;;;;;;;;;;5031727;28;20034;-78
2022/05/07 13:07:14;;;;;;;20.48;10.60;;;;;;;;;;5031521;28;20038;-78
2022/05/07 13:09:40;;;;;;;18.27;11.20;;;;;;;;;;5031432;28;20087;-79
2022/05/07 13:12:06;;;;;;;20.50;12.10;;;;;;;;;;5031742;28;20041;-78
2022/05/07 13:14:33;;;;;;;26.63;12.45;;;;;;;;;;5031585;28;20018;-77
2022/05/07 13:16:59;;;;;;;15.77;10.68;;;;;;;;;;5031769;28;20022;-77
2022/05/07 13:19:26;;;;;;;19.70;11.43;;;;;;;;;;5031163;28;20044;-77
2022/05/07 13:21:52;;;;;;;20.10;12.10;;;;;;;;;;5031428;28;20022;-77
2022/05/07 13:24:18;;;;;;;19.20;12.75;;;;;;;;;;5031561;28;20379;-77
2022/05/07 13:26:44;;;;;;;19.90;13.63;;;;;;;;;;5031641;28;20368;-77
2022/05/07 13:29:12;;;;;;;26.70;14.43;;;;;;;;;;5031581;28;20379;-76
2022/05/07 13:31:38;;;;;;;24.17;12.73;;;;;;;;;;5016155;28;20059;-77
2022/05/07 13:34:04;;;;;;;18.90;12.73;;;;;;;;;;5014586;28;20018;-77
2022/05/07 13:36:34;;;;;;;21.30;12.98;;;;;;;;;;5015567;28;20802;-77
2022/05/07 13:39:01;;;;;;;20.75;12.55;;;;;;;;;;5015717;28;20022;-73
2022/05/07 13:41:28;;;;;;;21.30;11.20;;;;;;;;;;5016068;28;20089;-79
2022/05/07 13:43:55;;;;;;;23.50;11.25;;;;;;;;;;5015860;28;20025;-79
2022/05/07 13:46:21;;;;;;;18.83;10.15;;;;;;;;;;5015748;28;20057;-79
2022/05/07 13:48:47;;;;;;;15.85;9.82;;;;;;;;;;5015523;28;20538;-77
2022/05/07 13:51:13;;;;;;;12.98;8.50;;;;;;;;;;5015389;28;20036;-78
2022/05/07 13:53:40;;;;;;;13.93;8.82;;;;;;;;;;5028109;28;20026;-78
2022/05/07 13:56:06;;;;;;;17.05;10.18;;;;;;;;;;5035382;28;20025;-78
2022/05/07 13:58:33;;;;;;;17.83;10.32;;;;;;;;;;5035693;28;20028;-77
2022/05/07 14:00:59;;;;;;;16.20;10.82;;;;;;;;;;5027673;28;20095;-76
2022/05/07 14:03:25;;;;;;;17.50;9.82;;;;;;;;;;5023029;28;20042;-76
2022/05/07 14:05:52;;;;;;;15.48;10.15;;;;;;;;;;5021154;28;20430;-76
2022/05/07 14:08:18;;;;;;;16.25;9.57;;;;;;;;;;5020058;28;20057;-76
2022/05/07 14:10:44;;;;;;;18.70;9.35;;;;;;;;;;5026031;28;20040;-76
2022/05/07 14:13:10;;;;;;;15.93;9.75;;;;;;;;;;5029184;28;20029;-76
2022/05/07 14:15:36;;;;;;;16.30;10.25;;;;;;;;;;5026056;28;20364;-78
2022/05/07 14:18:03;;;;;;;13.02;8.57;;;;;;;;;;5024432;28;20034;-76
2022/05/07 14:20:29;;;;;;;20.27;9.05;;;;;;;;;;5041681;28;20037;-76
2022/05/07 14:22:55;;;;;;;20.38;8.40;;;;;;;;;;5031797;28;20021;-76
2022/05/07 14:25:22;;;;;;;18.55;8.35;;;;;;;;;;5043646;28;20022;-76
2022/05/07 14:27:48;;;;;;;17.08;9.23;;;;;;;;;;5031455;28;20084;-76
2022/05/07 14:30:14;;;;;;;17.33;8.18;;;;;;;;;;5032506;28;20030;-76
2022/05/07 14:32:40;;;;;;;10.00;6.95;;;;;;;;;;5032057;28;20017;-76
2022/05/07 14:35:09;;;;;;;10.82;6.65;;;;;;;;;;5028605;28;20018;-74
2022/05/07 14:37:36;;;;;;;11.55;6.90;;;;;;;;;;5029921;28;20151;-75
2022/05/07 14:40:28;;;;;;;9.70;6.40;;;;;;;;;;5026944;28;20515;-75
2022/05/07 14:42:48;;;;;;;11.65;6.70;;;;;;;;;;5030419;28;20045;-74
2022/05/07 14:45:14;;;;;;;13.25;7.13;;;;;;;;;;5028904;28;20105;-74
2022/05/07 14:47:41;;;;;;;14.02;7.50;;;;;;;;;;5030181;28;20101;-73
2022/05/07 14:50:07;;;;;;;11.95;8.18;;;;;;;;;;5029664;28;20034;-75
2022/05/07 14:52:33;;;;;;;14.05;8.10;;;;;;;;;;5030040;28;20111;-76
2022/05/07 14:54:59;;;;;;;15.52;8.43;;;;;;;;;;5022632;28;20034;-75
2022/05/07 14:57:26;;;;;;;18.45;8.35;;;;;;;;;;5022250;28;20082;-72
2022/05/07 14:59:52;;;;;;;16.30;8.38;;;;;;;;;;5028350;28;20105;-75